ドバイ の空港の天気 - METARとTAF

ドバイ国際空港 ( OMDB / DXB ) - アラブ首長国連邦 ドバイ
飛行場実況気象(Metar)
観測時間01/23 16:00 GST (01/23 12:00 UTC)
風向・風速西北西 5m/s
視程6000m
天気現象
なし
気温24℃
湿度44%
気圧1016hPa
METAROMDB 231200Z 30010KT 6000 NSC 24/11 Q1016 NOSIG
過去の天気等 Google飛行場航空写真 Wunderground天気予報

過去48時間のMETAR

飛行場予報(TAF)
発表時間: 1/23 15:01 GST (1/23 11:01 UTC)
予報対象時間: 23日16時 GST ~ 24日22時 GST
風向・風速北西 6m/s
視程6000m
なし
23日19時 GST ~ 23日21時 GST に徐々に
風向・風速東南東 3m/s
24日5時 GST から 確率 30% で
視程4000m
天気現象煙霧
24日12時 GST ~ 24日14時 GST に徐々に
風向・風速北北東 5m/s
24日19時 GST ~ 24日21時 GST に徐々に
風向・風速東 3m/s
TAF OMDB 231101Z 2312/2418 31011KT 6000 NSC
BECMG 2315/2317 12005KT
PROB30 2401/2404 4000 HZ
BECMG 2408/2410 02010KT
BECMG 2415/2417 08005KT